Hovedside
METAR-TAF:

METAR-TAF

Lufthavner :

Västerås lufthavn

Västerås, Sverige

breddegrad: 59-35N, lengdegrad: 016-38E, høyde over havet: 6 m

Gjeldene værobservasjon

Denne rapporten ble laget for 24 minutter siden, klokken 03:20 UTC
Vind 8 kt fra Sør
Temperatur 16°C
Luftfuktighet 88%
Trykk 1005 hPa
Sikt 10 km eller mer

METAR: ESOW 180320Z AUTO 18008KT 9999 SCT009/// BKN013/// OVC032/// 16/14 Q1005

Tid: 05:44 (03:44 UTC)


TAF: fraværende

Værobservasjoner og værvarsel for over 4000 flyplasser (METAR- og TAF-rapporter).

Tilgjengelige stasjoner er representert av de røde og gule prikkene på kartet.

Hold musepekeren over prikken for å se navnet på stasjonen.

Klikk så for å se værobservasjoner og -varsler.

For å forandre kartet kan du klikke på den grønne knappen med svart kryss for å zoome inn, på den grønne knappen med strek for å zoome ut, eller på de grønne pilene for å se tilstøtende kart.


METAR-TAF: